Messwerte McMinnville

Temperatur

Temperatur
°C
1575810000 5.00 5.00 6
1575813600 6.00 6.00 6
1575817200 7.00 7.00 6
1575820800 8.00 8.00 6
1575824400 9.00 9.00 6
1575828000 10.00 10.00 8
1575831600 11.00 11.00 8
1575835200 12.00 12.00 9
1575838800 13.00 13.00
1575842400 14.00 14.00 11
1575846000 15.00 15.00 11
1575849600 16.00 16.00 11
1575853200 17.00 17.00 9
1575856800 18.00 18.00 9
1575860400 19.00 19.00 7
1575864000 20.00 20.00 8
1575867600 21.00 21.00 8
1575871200 22.00 22.00 8
1575874800 23.00 23.00 7
1575878400 0.00 0.00 8
1575882000 1.00 1.00
1575885600 2.00 2.00 6
1575889200 3.00 3.00 6
1575892800 4.00 4.00 6

Aktuellste Messwerte

Wettercharakter
Wetter: Nebel
Temperatur
6 °C
Feuchtigkeit
98 %
Wind
0 km/h, -
Luftdruck
1023 hPa
Messzeit: 9. Dezember 2019, 5.00Datenquelle: METAR

Weitere Messstationen in der Nähe

Messstation Temperatur Entfernung
Aurora 7 °C 29 km
Salem 7 °C 31 km
Portland 7 °C 41 km
Vancouver 7 °C 60 km
Portland 7 °C 62 km
Scappoose 7 °C 68 km
Portland 6 °C 69 km

Wind

Windrichtung Böen Mittelwind
° km/h km/h
1575810000 5.00 4.00 - 5.00 0
1575813600 6.00 5.00 - 6.00 0
1575817200 7.00 6.00 - 7.00 0
1575820800 8.00 7.00 - 8.00 0
1575824400 9.00 8.00 - 9.00 0
1575828000 10.00 9.00 - 10.00 0
1575831600 11.00 10.00 - 11.00 310° 5
1575835200 12.00 11.00 - 12.00 0
1575838800 13.00 12.00 - 13.00
1575842400 14.00 13.00 - 14.00 0
1575846000 15.00 14.00 - 15.00 0
1575849600 16.00 15.00 - 16.00 0
1575853200 17.00 16.00 - 17.00 0
1575856800 18.00 17.00 - 18.00 0
1575860400 19.00 18.00 - 19.00 0
1575864000 20.00 19.00 - 20.00 30° 5
1575867600 21.00 20.00 - 21.00 350° 5
1575871200 22.00 21.00 - 22.00 300° 5
1575874800 23.00 22.00 - 23.00 0
1575878400 0.00 23.00 - 0.00 340° 10
1575882000 1.00 0.00 - 1.00
1575885600 2.00 1.00 - 2.00 40° 5
1575889200 3.00 2.00 - 3.00 0
1575892800 4.00 3.00 - 4.00 310° 5

Ihre Wetterstation

Fehlt Ihre Wetterstation auf unserem Portal?

Schreiben Sie an network@meteonews.ch

Klima

Wann ist es am wärmsten? Wann regnet es am wenigsten? Unsere Klimadaten geben Auskunft.